sensor_id;sensor_type;location;lat;lon;timestamp;P1;durP1;ratioP1;P2;durP2;ratioP2
8060;SDS011;4073;42.626;25.386;2023-10-31T00:00:31;12.77;;;8.60;;
8060;SDS011;4073;42.626;25.386;2023-10-31T00:02:57;10.40;;;8.67;;
8060;SDS011;4073;42.626;25.386;2023-10-31T00:05:22;14.30;;;9.57;;
8060;SDS011;4073;42.626;25.386;2023-10-31T00:07:47;14.97;;;9.53;;
8060;SDS011;4073;42.626;25.386;2023-10-31T00:10:13;11.20;;;9.17;;
8060;SDS011;4073;42.626;25.386;2023-10-31T00:12:38;10.17;;;8.03;;
8060;SDS011;4073;42.626;25.386;2023-10-31T00:15:04;14.37;;;8.30;;
8060;SDS011;4073;42.626;25.386;2023-10-31T00:17:30;9.93;;;7.60;;
8060;SDS011;4073;42.626;25.386;2023-10-31T00:19:55;15.17;;;8.93;;
8060;SDS011;4073;42.626;25.386;2023-10-31T00:22:21;10.73;;;7.83;;
8060;SDS011;4073;42.626;25.386;2023-10-31T00:24:47;9.37;;;8.10;;
8060;SDS011;4073;42.626;25.386;2023-10-31T00:27:12;9.40;;;7.67;;
8060;SDS011;4073;42.626;25.386;2023-10-31T00:29:37;8.57;;;7.73;;
8060;SDS011;4073;42.626;25.386;2023-10-31T00:32:03;10.53;;;8.23;;
8060;SDS011;4073;42.626;25.386;2023-10-31T00:34:28;13.00;;;8.47;;
8060;SDS011;4073;42.626;25.386;2023-10-31T00:36:54;10.70;;;8.63;;
8060;SDS011;4073;42.626;25.386;2023-10-31T00:39:19;9.27;;;8.30;;
8060;SDS011;4073;42.626;25.386;2023-10-31T00:41:45;10.27;;;8.50;;
8060;SDS011;4073;42.626;25.386;2023-10-31T00:44:11;9.57;;;8.40;;
8060;SDS011;4073;42.626;25.386;2023-10-31T00:46:37;9.97;;;7.53;;
8060;SDS011;4073;42.626;25.386;2023-10-31T00:49:02;10.23;;;8.67;;
8060;SDS011;4073;42.626;25.386;2023-10-31T00:51:28;12.30;;;8.67;;
8060;SDS011;4073;42.626;25.386;2023-10-31T00:53:53;10.63;;;8.37;;
8060;SDS011;4073;42.626;25.386;2023-10-31T00:56:19;12.80;;;9.23;;
8060;SDS011;4073;42.626;25.386;2023-10-31T00:58:44;11.97;;;9.37;;
8060;SDS011;4073;42.626;25.386;2023-10-31T01:01:10;15.03;;;10.07;;
8060;SDS011;4073;42.626;25.386;2023-10-31T01:03:35;11.40;;;9.10;;
8060;SDS011;4073;42.626;25.386;2023-10-31T01:06:01;13.30;;;10.37;;
8060;SDS011;4073;42.626;25.386;2023-10-31T01:08:26;10.03;;;8.87;;
8060;SDS011;4073;42.626;25.386;2023-10-31T01:10:52;9.80;;;8.80;;
8060;SDS011;4073;42.626;25.386;2023-10-31T01:13:17;11.87;;;10.20;;
8060;SDS011;4073;42.626;25.386;2023-10-31T01:15:43;11.03;;;9.33;;
8060;SDS011;4073;42.626;25.386;2023-10-31T01:18:09;9.77;;;8.70;;
8060;SDS011;4073;42.626;25.386;2023-10-31T01:20:34;13.13;;;8.33;;
8060;SDS011;4073;42.626;25.386;2023-10-31T01:23:00;13.83;;;10.30;;
8060;SDS011;4073;42.626;25.386;2023-10-31T01:25:26;12.93;;;9.17;;
8060;SDS011;4073;42.626;25.386;2023-10-31T01:27:51;11.80;;;9.83;;
8060;SDS011;4073;42.626;25.386;2023-10-31T01:30:17;9.93;;;8.93;;
8060;SDS011;4073;42.626;25.386;2023-10-31T01:32:42;17.73;;;9.93;;
8060;SDS011;4073;42.626;25.386;2023-10-31T01:35:08;11.10;;;9.23;;
8060;SDS011;4073;42.626;25.386;2023-10-31T01:37:33;10.77;;;8.93;;
8060;SDS011;4073;42.626;25.386;2023-10-31T01:39:58;10.43;;;9.37;;
8060;SDS011;4073;42.626;25.386;2023-10-31T01:42:24;10.57;;;9.17;;
8060;SDS011;4073;42.626;25.386;2023-10-31T01:44:49;15.67;;;8.90;;
8060;SDS011;4073;42.626;25.386;2023-10-31T01:47:15;9.63;;;8.30;;
8060;SDS011;4073;42.626;25.386;2023-10-31T01:49:40;11.87;;;8.70;;
8060;SDS011;4073;42.626;25.386;2023-10-31T01:52:06;12.47;;;9.10;;
8060;SDS011;4073;42.626;25.386;2023-10-31T01:54:35;10.63;;;8.90;;
8060;SDS011;4073;42.626;25.386;2023-10-31T01:57:01;12.90;;;9.30;;
8060;SDS011;4073;42.626;25.386;2023-10-31T01:59:29;10.50;;;8.87;;
8060;SDS011;4073;42.626;25.386;2023-10-31T02:01:55;12.67;;;9.47;;
8060;SDS011;4073;42.626;25.386;2023-10-31T02:04:23;10.93;;;9.00;;
8060;SDS011;4073;42.626;25.386;2023-10-31T02:06:49;11.70;;;8.43;;
8060;SDS011;4073;42.626;25.386;2023-10-31T02:09:15;10.23;;;8.60;;
8060;SDS011;4073;42.626;25.386;2023-10-31T02:11:40;10.93;;;8.17;;
8060;SDS011;4073;42.626;25.386;2023-10-31T02:14:06;13.87;;;8.83;;
8060;SDS011;4073;42.626;25.386;2023-10-31T02:16:31;11.90;;;8.93;;
8060;SDS011;4073;42.626;25.386;2023-10-31T02:18:57;11.00;;;8.53;;
8060;SDS011;4073;42.626;25.386;2023-10-31T02:21:22;11.10;;;9.20;;
8060;SDS011;4073;42.626;25.386;2023-10-31T02:23:57;12.97;;;9.73;;
8060;SDS011;4073;42.626;25.386;2023-10-31T02:26:27;11.80;;;9.57;;
8060;SDS011;4073;42.626;25.386;2023-10-31T02:28:54;13.83;;;9.17;;
8060;SDS011;4073;42.626;25.386;2023-10-31T02:31:19;13.87;;;9.63;;
8060;SDS011;4073;42.626;25.386;2023-10-31T02:33:44;11.33;;;9.97;;
8060;SDS011;4073;42.626;25.386;2023-10-31T02:36:10;10.67;;;8.97;;
8060;SDS011;4073;42.626;25.386;2023-10-31T02:38:35;9.20;;;8.20;;
8060;SDS011;4073;42.626;25.386;2023-10-31T02:41:01;12.47;;;9.60;;
8060;SDS011;4073;42.626;25.386;2023-10-31T02:43:26;10.10;;;8.50;;
8060;SDS011;4073;42.626;25.386;2023-10-31T02:45:51;10.77;;;8.33;;
8060;SDS011;4073;42.626;25.386;2023-10-31T02:48:17;12.00;;;8.30;;
8060;SDS011;4073;42.626;25.386;2023-10-31T02:50:42;9.30;;;7.47;;
8060;SDS011;4073;42.626;25.386;2023-10-31T02:53:08;13.47;;;8.33;;
8060;SDS011;4073;42.626;25.386;2023-10-31T02:55:33;11.73;;;7.93;;
8060;SDS011;4073;42.626;25.386;2023-10-31T02:57:59;11.63;;;8.73;;
8060;SDS011;4073;42.626;25.386;2023-10-31T03:00:24;11.07;;;8.57;;
8060;SDS011;4073;42.626;25.386;2023-10-31T03:02:50;14.23;;;8.43;;
8060;SDS011;4073;42.626;25.386;2023-10-31T03:05:16;12.03;;;8.83;;
8060;SDS011;4073;42.626;25.386;2023-10-31T03:07:41;13.47;;;9.30;;
8060;SDS011;4073;42.626;25.386;2023-10-31T03:10:07;12.77;;;7.80;;
8060;SDS011;4073;42.626;25.386;2023-10-31T03:12:32;10.70;;;8.80;;
8060;SDS011;4073;42.626;25.386;2023-10-31T03:14:58;12.23;;;8.40;;
8060;SDS011;4073;42.626;25.386;2023-10-31T03:17:23;11.50;;;8.60;;
8060;SDS011;4073;42.626;25.386;2023-10-31T03:19:50;10.50;;;7.93;;
8060;SDS011;4073;42.626;25.386;2023-10-31T03:22:16;9.40;;;8.40;;
8060;SDS011;4073;42.626;25.386;2023-10-31T03:24:41;9.50;;;8.43;;
8060;SDS011;4073;42.626;25.386;2023-10-31T03:27:06;10.37;;;8.97;;
8060;SDS011;4073;42.626;25.386;2023-10-31T03:29:32;12.63;;;8.80;;
8060;SDS011;4073;42.626;25.386;2023-10-31T03:31:57;9.03;;;7.13;;
8060;SDS011;4073;42.626;25.386;2023-10-31T03:34:23;13.03;;;9.63;;
8060;SDS011;4073;42.626;25.386;2023-10-31T03:36:48;9.63;;;8.63;;
8060;SDS011;4073;42.626;25.386;2023-10-31T03:39:13;9.40;;;7.83;;
8060;SDS011;4073;42.626;25.386;2023-10-31T03:41:39;8.93;;;7.83;;
8060;SDS011;4073;42.626;25.386;2023-10-31T03:44:04;11.20;;;8.67;;
8060;SDS011;4073;42.626;25.386;2023-10-31T03:46:30;15.47;;;10.47;;
8060;SDS011;4073;42.626;25.386;2023-10-31T03:48:55;13.70;;;9.53;;
8060;SDS011;4073;42.626;25.386;2023-10-31T03:51:20;12.93;;;9.70;;
8060;SDS011;4073;42.626;25.386;2023-10-31T03:53:46;13.73;;;9.13;;
8060;SDS011;4073;42.626;25.386;2023-10-31T03:56:11;15.37;;;9.57;;
8060;SDS011;4073;42.626;25.386;2023-10-31T03:58:37;13.43;;;9.17;;
8060;SDS011;4073;42.626;25.386;2023-10-31T04:01:02;11.43;;;9.33;;
8060;SDS011;4073;42.626;25.386;2023-10-31T04:03:28;14.93;;;9.07;;
8060;SDS011;4073;42.626;25.386;2023-10-31T04:05:53;12.70;;;9.30;;
8060;SDS011;4073;42.626;25.386;2023-10-31T04:08:19;12.57;;;8.80;;
8060;SDS011;4073;42.626;25.386;2023-10-31T04:10:44;10.67;;;8.67;;
8060;SDS011;4073;42.626;25.386;2023-10-31T04:13:10;12.07;;;9.30;;
8060;SDS011;4073;42.626;25.386;2023-10-31T04:15:35;12.77;;;9.97;;
8060;SDS011;4073;42.626;25.386;2023-10-31T04:18:00;16.37;;;9.70;;
8060;SDS011;4073;42.626;25.386;2023-10-31T04:20:26;17.10;;;10.70;;
8060;SDS011;4073;42.626;25.386;2023-10-31T04:22:51;14.63;;;10.70;;
8060;SDS011;4073;42.626;25.386;2023-10-31T04:25:17;20.37;;;10.93;;
8060;SDS011;4073;42.626;25.386;2023-10-31T04:27:42;12.70;;;9.93;;
8060;SDS011;4073;42.626;25.386;2023-10-31T04:30:08;12.90;;;10.20;;
8060;SDS011;4073;42.626;25.386;2023-10-31T04:32:33;14.17;;;9.70;;
8060;SDS011;4073;42.626;25.386;2023-10-31T04:34:59;18.97;;;10.63;;
8060;SDS011;4073;42.626;25.386;2023-10-31T04:37:24;14.90;;;9.50;;
8060;SDS011;4073;42.626;25.386;2023-10-31T04:39:50;16.17;;;8.47;;
8060;SDS011;4073;42.626;25.386;2023-10-31T04:42:15;11.73;;;8.10;;
8060;SDS011;4073;42.626;25.386;2023-10-31T04:44:41;8.77;;;7.80;;
8060;SDS011;4073;42.626;25.386;2023-10-31T04:47:06;12.33;;;8.20;;
8060;SDS011;4073;42.626;25.386;2023-10-31T04:49:34;12.30;;;9.13;;
8060;SDS011;4073;42.626;25.386;2023-10-31T04:52:00;12.37;;;9.10;;
8060;SDS011;4073;42.626;25.386;2023-10-31T04:54:25;12.37;;;9.50;;
8060;SDS011;4073;42.626;25.386;2023-10-31T04:56:51;10.40;;;9.30;;
8060;SDS011;4073;42.626;25.386;2023-10-31T04:59:16;12.40;;;9.50;;
8060;SDS011;4073;42.626;25.386;2023-10-31T05:01:47;10.73;;;9.63;;
8060;SDS011;4073;42.626;25.386;2023-10-31T05:04:14;11.90;;;10.50;;
8060;SDS011;4073;42.626;25.386;2023-10-31T05:06:39;12.80;;;9.70;;
8060;SDS011;4073;42.626;25.386;2023-10-31T05:09:05;12.30;;;9.87;;
8060;SDS011;4073;42.626;25.386;2023-10-31T05:11:30;10.73;;;9.63;;
8060;SDS011;4073;42.626;25.386;2023-10-31T05:13:56;12.43;;;9.10;;
8060;SDS011;4073;42.626;25.386;2023-10-31T05:16:21;11.47;;;9.50;;
8060;SDS011;4073;42.626;25.386;2023-10-31T05:18:46;10.70;;;9.33;;
8060;SDS011;4073;42.626;25.386;2023-10-31T05:21:12;16.77;;;9.97;;
8060;SDS011;4073;42.626;25.386;2023-10-31T05:23:37;10.80;;;9.13;;
8060;SDS011;4073;42.626;25.386;2023-10-31T05:26:05;13.30;;;9.30;;
8060;SDS011;4073;42.626;25.386;2023-10-31T05:28:31;14.77;;;8.17;;
8060;SDS011;4073;42.626;25.386;2023-10-31T05:30:56;11.43;;;8.07;;
8060;SDS011;4073;42.626;25.386;2023-10-31T05:33:21;9.43;;;8.10;;
8060;SDS011;4073;42.626;25.386;2023-10-31T05:35:48;12.27;;;9.87;;
8060;SDS011;4073;42.626;25.386;2023-10-31T05:38:13;12.47;;;8.10;;
8060;SDS011;4073;42.626;25.386;2023-10-31T05:40:39;7.50;;;6.77;;
8060;SDS011;4073;42.626;25.386;2023-10-31T05:43:04;8.03;;;7.30;;
8060;SDS011;4073;42.626;25.386;2023-10-31T05:45:30;11.57;;;6.93;;
8060;SDS011;4073;42.626;25.386;2023-10-31T05:47:55;9.33;;;7.00;;
8060;SDS011;4073;42.626;25.386;2023-10-31T05:50:20;10.07;;;6.60;;
8060;SDS011;4073;42.626;25.386;2023-10-31T05:52:46;11.40;;;7.57;;
8060;SDS011;4073;42.626;25.386;2023-10-31T05:55:12;9.47;;;7.03;;
8060;SDS011;4073;42.626;25.386;2023-10-31T05:57:37;10.67;;;6.97;;
8060;SDS011;4073;42.626;25.386;2023-10-31T06:00:03;11.13;;;7.90;;
8060;SDS011;4073;42.626;25.386;2023-10-31T06:02:28;7.80;;;7.00;;
8060;SDS011;4073;42.626;25.386;2023-10-31T06:04:55;9.60;;;6.60;;
8060;SDS011;4073;42.626;25.386;2023-10-31T06:07:20;10.10;;;7.87;;
8060;SDS011;4073;42.626;25.386;2023-10-31T06:09:46;11.57;;;7.70;;
8060;SDS011;4073;42.626;25.386;2023-10-31T06:12:11;17.00;;;10.63;;
8060;SDS011;4073;42.626;25.386;2023-10-31T06:14:37;19.50;;;10.47;;
8060;SDS011;4073;42.626;25.386;2023-10-31T06:17:02;14.80;;;8.43;;
8060;SDS011;4073;42.626;25.386;2023-10-31T06:19:27;11.80;;;7.77;;
8060;SDS011;4073;42.626;25.386;2023-10-31T06:21:53;9.67;;;6.83;;
8060;SDS011;4073;42.626;25.386;2023-10-31T06:24:18;9.10;;;6.77;;
8060;SDS011;4073;42.626;25.386;2023-10-31T06:26:44;14.23;;;7.80;;
8060;SDS011;4073;42.626;25.386;2023-10-31T06:29:09;10.47;;;6.77;;
8060;SDS011;4073;42.626;25.386;2023-10-31T06:31:34;10.77;;;6.67;;
8060;SDS011;4073;42.626;25.386;2023-10-31T06:34:00;9.90;;;7.30;;
8060;SDS011;4073;42.626;25.386;2023-10-31T06:36:25;9.10;;;6.47;;
8060;SDS011;4073;42.626;25.386;2023-10-31T06:38:51;8.03;;;6.43;;
8060;SDS011;4073;42.626;25.386;2023-10-31T06:41:16;8.40;;;6.10;;
8060;SDS011;4073;42.626;25.386;2023-10-31T06:43:41;9.80;;;6.67;;
8060;SDS011;4073;42.626;25.386;2023-10-31T06:46:07;10.23;;;6.30;;
8060;SDS011;4073;42.626;25.386;2023-10-31T06:48:33;7.23;;;6.00;;
8060;SDS011;4073;42.626;25.386;2023-10-31T06:50:58;9.23;;;5.77;;
8060;SDS011;4073;42.626;25.386;2023-10-31T06:53:24;11.33;;;6.17;;
8060;SDS011;4073;42.626;25.386;2023-10-31T06:55:49;7.97;;;6.13;;
8060;SDS011;4073;42.626;25.386;2023-10-31T06:58:15;7.37;;;5.90;;
8060;SDS011;4073;42.626;25.386;2023-10-31T07:00:40;7.37;;;5.10;;
8060;SDS011;4073;42.626;25.386;2023-10-31T07:03:05;5.30;;;4.70;;
8060;SDS011;4073;42.626;25.386;2023-10-31T07:05:36;10.07;;;6.27;;
8060;SDS011;4073;42.626;25.386;2023-10-31T07:08:02;9.10;;;5.57;;
8060;SDS011;4073;42.626;25.386;2023-10-31T07:10:28;6.40;;;5.77;;
8060;SDS011;4073;42.626;25.386;2023-10-31T07:12:53;6.43;;;4.93;;
8060;SDS011;4073;42.626;25.386;2023-10-31T07:15:19;6.27;;;5.60;;
8060;SDS011;4073;42.626;25.386;2023-10-31T07:17:44;8.10;;;5.73;;
8060;SDS011;4073;42.626;25.386;2023-10-31T07:20:10;7.47;;;6.10;;
8060;SDS011;4073;42.626;25.386;2023-10-31T07:22:35;8.00;;;6.20;;
8060;SDS011;4073;42.626;25.386;2023-10-31T07:25:01;12.03;;;6.83;;
8060;SDS011;4073;42.626;25.386;2023-10-31T07:27:28;10.47;;;6.07;;
8060;SDS011;4073;42.626;25.386;2023-10-31T07:29:54;9.10;;;6.87;;
8060;SDS011;4073;42.626;25.386;2023-10-31T07:32:19;8.67;;;6.93;;
8060;SDS011;4073;42.626;25.386;2023-10-31T07:34:45;11.67;;;8.27;;
8060;SDS011;4073;42.626;25.386;2023-10-31T07:37:10;9.63;;;6.87;;
8060;SDS011;4073;42.626;25.386;2023-10-31T07:39:36;10.23;;;7.70;;
8060;SDS011;4073;42.626;25.386;2023-10-31T07:42:01;9.90;;;7.77;;
8060;SDS011;4073;42.626;25.386;2023-10-31T07:44:27;10.13;;;6.93;;
8060;SDS011;4073;42.626;25.386;2023-10-31T07:46:52;11.70;;;7.70;;
8060;SDS011;4073;42.626;25.386;2023-10-31T07:49:17;13.20;;;7.57;;
8060;SDS011;4073;42.626;25.386;2023-10-31T07:51:43;12.43;;;6.63;;
8060;SDS011;4073;42.626;25.386;2023-10-31T07:54:08;10.80;;;7.53;;
8060;SDS011;4073;42.626;25.386;2023-10-31T07:56:34;11.80;;;7.07;;
8060;SDS011;4073;42.626;25.386;2023-10-31T07:59:01;9.47;;;7.20;;
8060;SDS011;4073;42.626;25.386;2023-10-31T08:01:26;9.40;;;6.80;;
8060;SDS011;4073;42.626;25.386;2023-10-31T08:03:52;8.50;;;6.43;;
8060;SDS011;4073;42.626;25.386;2023-10-31T08:06:17;6.63;;;5.93;;
8060;SDS011;4073;42.626;25.386;2023-10-31T08:08:43;7.60;;;6.20;;
8060;SDS011;4073;42.626;25.386;2023-10-31T08:11:09;11.03;;;6.13;;
8060;SDS011;4073;42.626;25.386;2023-10-31T08:13:38;11.20;;;5.83;;
8060;SDS011;4073;42.626;25.386;2023-10-31T08:16:07;9.77;;;7.43;;
8060;SDS011;4073;42.626;25.386;2023-10-31T08:18:33;10.37;;;7.03;;
8060;SDS011;4073;42.626;25.386;2023-10-31T08:20:59;9.40;;;6.60;;
8060;SDS011;4073;42.626;25.386;2023-10-31T08:23:25;11.00;;;6.00;;
8060;SDS011;4073;42.626;25.386;2023-10-31T08:25:50;6.83;;;5.30;;
8060;SDS011;4073;42.626;25.386;2023-10-31T08:28:16;8.33;;;6.33;;
8060;SDS011;4073;42.626;25.386;2023-10-31T08:30:41;7.30;;;6.07;;
8060;SDS011;4073;42.626;25.386;2023-10-31T08:33:07;17.27;;;7.40;;
8060;SDS011;4073;42.626;25.386;2023-10-31T08:35:32;8.30;;;6.70;;
8060;SDS011;4073;42.626;25.386;2023-10-31T08:37:58;10.23;;;7.30;;
8060;SDS011;4073;42.626;25.386;2023-10-31T08:40:23;11.47;;;6.47;;
8060;SDS011;4073;42.626;25.386;2023-10-31T08:42:49;18.90;;;7.13;;
8060;SDS011;4073;42.626;25.386;2023-10-31T08:45:14;15.20;;;7.30;;
8060;SDS011;4073;42.626;25.386;2023-10-31T08:47:40;11.80;;;6.00;;
8060;SDS011;4073;42.626;25.386;2023-10-31T08:50:06;9.50;;;5.70;;
8060;SDS011;4073;42.626;25.386;2023-10-31T08:52:33;7.93;;;5.20;;
8060;SDS011;4073;42.626;25.386;2023-10-31T08:54:59;9.70;;;5.93;;
8060;SDS011;4073;42.626;25.386;2023-10-31T08:57:24;13.50;;;5.57;;
8060;SDS011;4073;42.626;25.386;2023-10-31T08:59:50;10.47;;;5.40;;
8060;SDS011;4073;42.626;25.386;2023-10-31T09:02:15;9.23;;;4.83;;
8060;SDS011;4073;42.626;25.386;2023-10-31T09:04:41;9.13;;;5.10;;
8060;SDS011;4073;42.626;25.386;2023-10-31T09:07:06;9.23;;;5.03;;
8060;SDS011;4073;42.626;25.386;2023-10-31T09:09:32;8.80;;;5.37;;
8060;SDS011;4073;42.626;25.386;2023-10-31T09:11:57;6.80;;;4.93;;
8060;SDS011;4073;42.626;25.386;2023-10-31T09:14:23;7.47;;;5.20;;
8060;SDS011;4073;42.626;25.386;2023-10-31T09:16:48;9.57;;;5.40;;
8060;SDS011;4073;42.626;25.386;2023-10-31T09:19:14;10.60;;;5.33;;
8060;SDS011;4073;42.626;25.386;2023-10-31T09:21:39;7.27;;;5.87;;
8060;SDS011;4073;42.626;25.386;2023-10-31T09:24:04;7.23;;;5.57;;
8060;SDS011;4073;42.626;25.386;2023-10-31T09:26:31;10.00;;;5.90;;
8060;SDS011;4073;42.626;25.386;2023-10-31T09:28:56;8.67;;;5.20;;
8060;SDS011;4073;42.626;25.386;2023-10-31T09:31:22;12.73;;;5.53;;
8060;SDS011;4073;42.626;25.386;2023-10-31T09:33:47;10.40;;;4.50;;
8060;SDS011;4073;42.626;25.386;2023-10-31T09:36:13;6.83;;;5.43;;
8060;SDS011;4073;42.626;25.386;2023-10-31T09:38:39;10.03;;;5.20;;
8060;SDS011;4073;42.626;25.386;2023-10-31T09:41:05;6.73;;;4.67;;
8060;SDS011;4073;42.626;25.386;2023-10-31T09:43:31;7.87;;;4.77;;
8060;SDS011;4073;42.626;25.386;2023-10-31T09:45:57;9.20;;;4.80;;
8060;SDS011;4073;42.626;25.386;2023-10-31T09:48:22;8.90;;;4.97;;
8060;SDS011;4073;42.626;25.386;2023-10-31T09:50:48;10.83;;;4.93;;
8060;SDS011;4073;42.626;25.386;2023-10-31T09:53:15;9.63;;;5.03;;
8060;SDS011;4073;42.626;25.386;2023-10-31T09:55:43;10.37;;;4.77;;
8060;SDS011;4073;42.626;25.386;2023-10-31T09:58:10;7.57;;;4.63;;
8060;SDS011;4073;42.626;25.386;2023-10-31T10:00:36;6.70;;;4.43;;
8060;SDS011;4073;42.626;25.386;2023-10-31T10:03:03;11.87;;;4.50;;
8060;SDS011;4073;42.626;25.386;2023-10-31T10:05:31;8.60;;;4.87;;
8060;SDS011;4073;42.626;25.386;2023-10-31T10:08:00;6.33;;;4.40;;
8060;SDS011;4073;42.626;25.386;2023-10-31T10:10:25;7.10;;;4.43;;
8060;SDS011;4073;42.626;25.386;2023-10-31T10:12:51;8.13;;;4.40;;
8060;SDS011;4073;42.626;25.386;2023-10-31T10:15:17;6.40;;;4.47;;
8060;SDS011;4073;42.626;25.386;2023-10-31T10:17:50;10.13;;;4.20;;
8060;SDS011;4073;42.626;25.386;2023-10-31T10:20:16;6.30;;;3.70;;
8060;SDS011;4073;42.626;25.386;2023-10-31T10:22:43;6.23;;;3.93;;
8060;SDS011;4073;42.626;25.386;2023-10-31T10:25:10;7.13;;;3.90;;
8060;SDS011;4073;42.626;25.386;2023-10-31T10:27:40;10.03;;;3.43;;
8060;SDS011;4073;42.626;25.386;2023-10-31T10:30:07;6.80;;;4.30;;
8060;SDS011;4073;42.626;25.386;2023-10-31T10:32:33;7.17;;;4.77;;
8060;SDS011;4073;42.626;25.386;2023-10-31T10:34:59;11.27;;;4.07;;
8060;SDS011;4073;42.626;25.386;2023-10-31T10:37:26;8.30;;;4.07;;
8060;SDS011;4073;42.626;25.386;2023-10-31T10:39:52;5.83;;;5.00;;
8060;SDS011;4073;42.626;25.386;2023-10-31T10:42:21;4.93;;;4.20;;
8060;SDS011;4073;42.626;25.386;2023-10-31T10:44:58;9.87;;;4.97;;
8060;SDS011;4073;42.626;25.386;2023-10-31T10:47:28;9.23;;;4.80;;
8060;SDS011;4073;42.626;25.386;2023-10-31T10:49:54;6.57;;;4.83;;
8060;SDS011;4073;42.626;25.386;2023-10-31T10:52:26;8.87;;;5.07;;
8060;SDS011;4073;42.626;25.386;2023-10-31T10:55:01;8.53;;;4.47;;
8060;SDS011;4073;42.626;25.386;2023-10-31T10:57:31;8.50;;;4.57;;
8060;SDS011;4073;42.626;25.386;2023-10-31T11:00:03;10.67;;;4.70;;
8060;SDS011;4073;42.626;25.386;2023-10-31T11:02:31;8.13;;;4.80;;
8060;SDS011;4073;42.626;25.386;2023-10-31T11:04:57;6.57;;;4.43;;
8060;SDS011;4073;42.626;25.386;2023-10-31T11:07:24;6.40;;;4.50;;
8060;SDS011;4073;42.626;25.386;2023-10-31T11:09:53;6.53;;;4.00;;
8060;SDS011;4073;42.626;25.386;2023-10-31T11:12:19;8.27;;;4.30;;
8060;SDS011;4073;42.626;25.386;2023-10-31T11:14:47;8.67;;;4.83;;
8060;SDS011;4073;42.626;25.386;2023-10-31T11:17:24;6.40;;;3.83;;
8060;SDS011;4073;42.626;25.386;2023-10-31T11:19:52;6.67;;;4.13;;
8060;SDS011;4073;42.626;25.386;2023-10-31T11:22:19;6.67;;;4.17;;
8060;SDS011;4073;42.626;25.386;2023-10-31T11:24:45;4.73;;;3.73;;
8060;SDS011;4073;42.626;25.386;2023-10-31T11:27:10;4.50;;;3.80;;
8060;SDS011;4073;42.626;25.386;2023-10-31T11:29:36;9.03;;;3.90;;
8060;SDS011;4073;42.626;25.386;2023-10-31T11:32:02;7.43;;;4.53;;
8060;SDS011;4073;42.626;25.386;2023-10-31T11:34:29;4.83;;;3.57;;
8060;SDS011;4073;42.626;25.386;2023-10-31T11:42:56;7.40;;;5.00;;
8060;SDS011;4073;42.626;25.386;2023-10-31T11:45:26;5.90;;;4.10;;
8060;SDS011;4073;42.626;25.386;2023-10-31T11:48:02;10.90;;;4.23;;
8060;SDS011;4073;42.626;25.386;2023-10-31T11:50:30;6.33;;;4.37;;
8060;SDS011;4073;42.626;25.386;2023-10-31T11:53:15;5.60;;;3.77;;
8060;SDS011;4073;42.626;25.386;2023-10-31T11:55:45;7.00;;;4.10;;
8060;SDS011;4073;42.626;25.386;2023-10-31T11:58:16;8.03;;;4.13;;
8060;SDS011;4073;42.626;25.386;2023-10-31T12:00:46;6.37;;;4.10;;
8060;SDS011;4073;42.626;25.386;2023-10-31T12:03:15;10.00;;;3.90;;
8060;SDS011;4073;42.626;25.386;2023-10-31T12:05:51;7.93;;;3.70;;
8060;SDS011;4073;42.626;25.386;2023-10-31T12:08:31;9.80;;;3.90;;
8060;SDS011;4073;42.626;25.386;2023-10-31T12:13:37;9.73;;;4.03;;
8060;SDS011;4073;42.626;25.386;2023-10-31T12:16:07;9.23;;;3.83;;
8060;SDS011;4073;42.626;25.386;2023-10-31T12:18:35;11.03;;;5.03;;
8060;SDS011;4073;42.626;25.386;2023-10-31T12:21:01;4.97;;;3.80;;
8060;SDS011;4073;42.626;25.386;2023-10-31T12:23:26;5.77;;;3.90;;
8060;SDS011;4073;42.626;25.386;2023-10-31T12:25:52;6.63;;;4.03;;
8060;SDS011;4073;42.626;25.386;2023-10-31T12:28:22;7.53;;;4.60;;
8060;SDS011;4073;42.626;25.386;2023-10-31T12:30:48;5.67;;;4.10;;
8060;SDS011;4073;42.626;25.386;2023-10-31T12:33:16;10.30;;;3.63;;
8060;SDS011;4073;42.626;25.386;2023-10-31T12:35:42;7.40;;;3.87;;
8060;SDS011;4073;42.626;25.386;2023-10-31T12:38:12;6.27;;;3.73;;
8060;SDS011;4073;42.626;25.386;2023-10-31T12:40:39;7.47;;;4.73;;
8060;SDS011;4073;42.626;25.386;2023-10-31T12:43:06;8.23;;;4.23;;
8060;SDS011;4073;42.626;25.386;2023-10-31T12:45:32;6.83;;;4.13;;
8060;SDS011;4073;42.626;25.386;2023-10-31T12:48:07;7.83;;;4.40;;
8060;SDS011;4073;42.626;25.386;2023-10-31T12:50:34;7.73;;;4.00;;
8060;SDS011;4073;42.626;25.386;2023-10-31T12:53:05;4.67;;;3.77;;
8060;SDS011;4073;42.626;25.386;2023-10-31T12:55:37;6.43;;;4.10;;
8060;SDS011;4073;42.626;25.386;2023-10-31T12:58:03;4.43;;;3.70;;
8060;SDS011;4073;42.626;25.386;2023-10-31T13:00:30;5.33;;;4.03;;
8060;SDS011;4073;42.626;25.386;2023-10-31T13:03:06;6.43;;;4.33;;
8060;SDS011;4073;42.626;25.386;2023-10-31T13:05:37;7.10;;;4.23;;
8060;SDS011;4073;42.626;25.386;2023-10-31T13:08:08;6.03;;;4.00;;
8060;SDS011;4073;42.626;25.386;2023-10-31T13:10:39;4.67;;;3.87;;
8060;SDS011;4073;42.626;25.386;2023-10-31T13:13:04;13.70;;;5.10;;
8060;SDS011;4073;42.626;25.386;2023-10-31T13:15:30;7.17;;;4.00;;
8060;SDS011;4073;42.626;25.386;2023-10-31T13:17:55;7.67;;;4.43;;
8060;SDS011;4073;42.626;25.386;2023-10-31T13:20:22;8.30;;;5.07;;
8060;SDS011;4073;42.626;25.386;2023-10-31T13:22:48;7.77;;;4.70;;
8060;SDS011;4073;42.626;25.386;2023-10-31T13:25:14;5.20;;;4.70;;
8060;SDS011;4073;42.626;25.386;2023-10-31T13:27:41;5.57;;;4.40;;
8060;SDS011;4073;42.626;25.386;2023-10-31T13:30:08;9.77;;;5.47;;
8060;SDS011;4073;42.626;25.386;2023-10-31T13:32:36;8.77;;;4.57;;
8060;SDS011;4073;42.626;25.386;2023-10-31T13:35:01;10.90;;;5.13;;
8060;SDS011;4073;42.626;25.386;2023-10-31T13:37:27;9.43;;;4.57;;
8060;SDS011;4073;42.626;25.386;2023-10-31T13:39:53;8.97;;;4.17;;
8060;SDS011;4073;42.626;25.386;2023-10-31T13:42:18;8.90;;;4.83;;
8060;SDS011;4073;42.626;25.386;2023-10-31T13:44:44;7.73;;;5.07;;
8060;SDS011;4073;42.626;25.386;2023-10-31T13:47:09;7.93;;;5.23;;
8060;SDS011;4073;42.626;25.386;2023-10-31T13:49:37;8.03;;;5.40;;
8060;SDS011;4073;42.626;25.386;2023-10-31T13:52:03;9.47;;;5.00;;
8060;SDS011;4073;42.626;25.386;2023-10-31T13:54:30;9.87;;;5.50;;
8060;SDS011;4073;42.626;25.386;2023-10-31T13:56:55;7.27;;;4.70;;
8060;SDS011;4073;42.626;25.386;2023-10-31T13:59:21;9.57;;;5.57;;
8060;SDS011;4073;42.626;25.386;2023-10-31T14:01:46;7.67;;;4.77;;
8060;SDS011;4073;42.626;25.386;2023-10-31T14:04:12;7.53;;;5.07;;
8060;SDS011;4073;42.626;25.386;2023-10-31T14:06:39;8.47;;;5.53;;
8060;SDS011;4073;42.626;25.386;2023-10-31T14:09:05;9.67;;;5.10;;
8060;SDS011;4073;42.626;25.386;2023-10-31T14:11:32;17.70;;;5.93;;
8060;SDS011;4073;42.626;25.386;2023-10-31T14:13:58;11.17;;;5.60;;
8060;SDS011;4073;42.626;25.386;2023-10-31T14:16:28;21.80;;;6.07;;
8060;SDS011;4073;42.626;25.386;2023-10-31T14:18:55;12.97;;;6.43;;
8060;SDS011;4073;42.626;25.386;2023-10-31T14:21:20;9.23;;;5.27;;
8060;SDS011;4073;42.626;25.386;2023-10-31T14:23:46;14.43;;;6.47;;
8060;SDS011;4073;42.626;25.386;2023-10-31T14:26:18;10.40;;;5.57;;
8060;SDS011;4073;42.626;25.386;2023-10-31T14:28:45;11.17;;;5.57;;
8060;SDS011;4073;42.626;25.386;2023-10-31T14:31:10;12.77;;;7.83;;
8060;SDS011;4073;42.626;25.386;2023-10-31T14:33:36;12.30;;;6.33;;
8060;SDS011;4073;42.626;25.386;2023-10-31T14:36:01;14.07;;;7.03;;
8060;SDS011;4073;42.626;25.386;2023-10-31T14:38:27;13.47;;;6.57;;
8060;SDS011;4073;42.626;25.386;2023-10-31T14:40:52;11.17;;;7.00;;
8060;SDS011;4073;42.626;25.386;2023-10-31T14:43:18;10.60;;;6.47;;
8060;SDS011;4073;42.626;25.386;2023-10-31T14:45:43;14.97;;;6.23;;
8060;SDS011;4073;42.626;25.386;2023-10-31T14:48:09;11.13;;;5.87;;
8060;SDS011;4073;42.626;25.386;2023-10-31T14:50:35;13.40;;;5.90;;
8060;SDS011;4073;42.626;25.386;2023-10-31T14:53:00;17.73;;;7.23;;
8060;SDS011;4073;42.626;25.386;2023-10-31T14:55:26;20.67;;;7.87;;